Terminal Aerodrome Forecast
Issued by NWS

Home | Current Version | Previous Version | Text Only | Print | Product List | Glossary On
Versions: 1 2 3 4 5 6 7 8 9 10 11 12 13
000
FTUS41 KPBZ 271700
TAFAGC
TAF
KAGC 271720Z 2718/2818 27005KT P6SM VCSH BKN035
     FM272200 32008KT P6SM BKN035
     FM280200 34005KT P6SM SCT050=

USA.gov is the U.S. government's official web portal to all federal, state and local government web resources and services.